sensor_id;sensor_type;location;lat;lon;timestamp;pressure;altitude;pressure_sealevel;temperature;humidity
33422;BME280;19763;55.798;37.782;2023-11-19T00:00:20;38910.81;;;-145.63;47.66
33422;BME280;19763;55.798;37.782;2023-11-19T00:02:46;39106.38;;;-145.63;48.34
33422;BME280;19763;55.798;37.782;2023-11-19T00:05:13;39125.94;;;-145.63;47.95
33422;BME280;19763;55.798;37.782;2023-11-19T00:07:40;39120.06;;;-145.63;48.60
33422;BME280;19763;55.798;37.782;2023-11-19T00:12:40;39114.22;;;-145.63;48.36
33422;BME280;19763;55.798;37.782;2023-11-19T00:15:07;39163.09;;;-145.63;48.66
33422;BME280;19763;55.798;37.782;2023-11-19T00:17:43;39122.03;;;-145.63;48.25
33422;BME280;19763;55.798;37.782;2023-11-19T00:20:17;39145.50;;;-145.63;48.27
33422;BME280;19763;55.798;37.782;2023-11-19T00:22:44;39139.63;;;-145.63;48.27
33422;BME280;19763;55.798;37.782;2023-11-19T00:25:11;39129.84;;;-145.63;48.08
33422;BME280;19763;55.798;37.782;2023-11-19T00:27:37;39127.91;;;-145.63;48.14
33422;BME280;19763;55.798;37.782;2023-11-19T00:30:04;39131.81;;;-145.63;48.30
33422;BME280;19763;55.798;37.782;2023-11-19T00:32:32;39131.81;;;-145.63;48.09
33422;BME280;19763;55.798;37.782;2023-11-19T00:34:58;39157.22;;;-145.63;48.04
33422;BME280;19763;55.798;37.782;2023-11-19T00:37:24;39125.94;;;-145.63;48.06
33422;BME280;19763;55.798;37.782;2023-11-19T00:39:49;39086.81;;;-145.63;47.73
33422;BME280;19763;55.798;37.782;2023-11-19T00:42:18;39145.50;;;-145.63;47.64
33422;BME280;19763;55.798;37.782;2023-11-19T00:44:43;39135.72;;;-145.63;48.27
33422;BME280;19763;55.798;37.782;2023-11-19T00:47:09;39112.25;;;-145.63;48.40
33422;BME280;19763;55.798;37.782;2023-11-19T00:49:35;39116.16;;;-145.63;48.12
33422;BME280;19763;55.798;37.782;2023-11-19T00:52:00;39129.84;;;-145.63;48.31
33422;BME280;19763;55.798;37.782;2023-11-19T00:54:27;39139.63;;;-145.63;48.16
33422;BME280;19763;55.798;37.782;2023-11-19T00:56:53;39145.50;;;-145.63;47.99
33422;BME280;19763;55.798;37.782;2023-11-19T00:59:19;39118.13;;;-145.63;48.60
33422;BME280;19763;55.798;37.782;2023-11-19T01:01:45;39129.84;;;-145.63;48.25
33422;BME280;19763;55.798;37.782;2023-11-19T01:04:14;39114.22;;;-145.63;48.69
33422;BME280;19763;55.798;37.782;2023-11-19T01:06:40;39106.38;;;-145.63;48.96
33422;BME280;19763;55.798;37.782;2023-11-19T01:09:08;39125.94;;;-145.63;48.37
33422;BME280;19763;55.798;37.782;2023-11-19T01:11:34;39116.16;;;-145.63;48.55
33422;BME280;19763;55.798;37.782;2023-11-19T01:14:00;39122.03;;;-145.63;48.85
33422;BME280;19763;55.798;37.782;2023-11-19T01:16:26;39143.53;;;-145.63;49.15
33422;BME280;19763;55.798;37.782;2023-11-19T01:18:52;39071.19;;;-145.63;48.73
33422;BME280;19763;55.798;37.782;2023-11-19T01:21:18;39118.13;;;-145.63;49.45
33422;BME280;19763;55.798;37.782;2023-11-19T01:23:44;39125.94;;;-145.63;49.08
33422;BME280;19763;55.798;37.782;2023-11-19T01:26:13;39120.06;;;-145.63;49.57
33422;BME280;19763;55.798;37.782;2023-11-19T01:28:40;39127.91;;;-145.63;49.00
33422;BME280;19763;55.798;37.782;2023-11-19T01:31:08;39116.16;;;-145.63;48.82
33422;BME280;19763;55.798;37.782;2023-11-19T01:33:36;39122.03;;;-145.63;49.04
33422;BME280;19763;55.798;37.782;2023-11-19T01:36:02;39133.75;;;-145.63;49.18
33422;BME280;19763;55.798;37.782;2023-11-19T01:38:27;39106.38;;;-145.63;49.42
33422;BME280;19763;55.798;37.782;2023-11-19T01:40:56;39108.34;;;-145.63;49.00
33422;BME280;19763;55.798;37.782;2023-11-19T01:43:36;39112.25;;;-145.63;48.87
33422;BME280;19763;55.798;37.782;2023-11-19T01:46:03;39094.66;;;-145.63;49.34
33422;BME280;19763;55.798;37.782;2023-11-19T01:48:31;39116.16;;;-145.63;49.62
33422;BME280;19763;55.798;37.782;2023-11-19T01:50:58;39112.25;;;-145.63;49.02
33422;BME280;19763;55.798;37.782;2023-11-19T01:53:24;39090.75;;;-145.63;49.40
33422;BME280;19763;55.798;37.782;2023-11-19T01:55:50;39094.66;;;-145.63;49.39
33422;BME280;19763;55.798;37.782;2023-11-19T01:58:18;39102.47;;;-145.63;49.47
33422;BME280;19763;55.798;37.782;2023-11-19T02:00:44;39116.16;;;-145.63;49.17
33422;BME280;19763;55.798;37.782;2023-11-19T02:03:11;39122.03;;;-145.63;50.15
33422;BME280;19763;55.798;37.782;2023-11-19T02:05:38;39135.72;;;-145.63;49.99
33422;BME280;19763;55.798;37.782;2023-11-19T02:08:05;39104.44;;;-145.63;49.56
33422;BME280;19763;55.798;37.782;2023-11-19T02:10:31;39088.78;;;-145.63;49.86
33422;BME280;19763;55.798;37.782;2023-11-19T02:12:58;39092.69;;;-145.63;50.34
33422;BME280;19763;55.798;37.782;2023-11-19T02:15:24;39094.66;;;-145.63;49.61
33422;BME280;19763;55.798;37.782;2023-11-19T02:17:51;39112.25;;;-145.63;50.28
33422;BME280;19763;55.798;37.782;2023-11-19T02:20:18;39086.81;;;-145.63;50.45
33422;BME280;19763;55.798;37.782;2023-11-19T02:22:46;39016.44;;;-145.63;50.20
33422;BME280;19763;55.798;37.782;2023-11-19T02:25:30;39086.81;;;-145.63;49.65
33422;BME280;19763;55.798;37.782;2023-11-19T02:28:01;39116.16;;;-145.63;49.77
33422;BME280;19763;55.798;37.782;2023-11-19T02:30:27;39084.88;;;-145.63;50.00
33422;BME280;19763;55.798;37.782;2023-11-19T02:32:57;39090.75;;;-145.63;50.34
33422;BME280;19763;55.798;37.782;2023-11-19T02:35:27;39118.13;;;-145.63;50.59
33422;BME280;19763;55.798;37.782;2023-11-19T02:37:56;39079.00;;;-145.63;50.75
33422;BME280;19763;55.798;37.782;2023-11-19T02:40:22;39084.88;;;-145.63;50.49
33422;BME280;19763;55.798;37.782;2023-11-19T02:42:50;38949.94;;;-145.63;50.95
33422;BME280;19763;55.798;37.782;2023-11-19T02:45:17;39102.47;;;-145.63;50.76
33422;BME280;19763;55.798;37.782;2023-11-19T02:47:43;39106.38;;;-145.63;50.53
33422;BME280;19763;55.798;37.782;2023-11-19T02:50:13;39075.09;;;-145.63;50.54
33422;BME280;19763;55.798;37.782;2023-11-19T02:52:41;39096.59;;;-145.63;50.91
33422;BME280;19763;55.798;37.782;2023-11-19T02:55:08;39084.88;;;-145.63;50.42
33422;BME280;19763;55.798;37.782;2023-11-19T02:57:45;39069.22;;;-145.63;51.37
33422;BME280;19763;55.798;37.782;2023-11-19T03:02:41;39096.59;;;-145.63;51.16
33422;BME280;19763;55.798;37.782;2023-11-19T03:05:19;39079.00;;;-145.63;51.39
33422;BME280;19763;55.798;37.782;2023-11-19T03:07:45;39086.81;;;-145.63;51.16
33422;BME280;19763;55.798;37.782;2023-11-19T03:10:11;39077.06;;;-145.63;51.20
33422;BME280;19763;55.798;37.782;2023-11-19T03:12:40;39086.81;;;-145.63;50.94
33422;BME280;19763;55.798;37.782;2023-11-19T03:15:07;39104.44;;;-145.63;50.49
33422;BME280;19763;55.798;37.782;2023-11-19T03:17:39;39129.84;;;-145.63;50.58
33422;BME280;19763;55.798;37.782;2023-11-19T03:20:06;39098.56;;;-145.63;50.32
33422;BME280;19763;55.798;37.782;2023-11-19T03:22:36;39184.59;;;-145.63;50.47
33422;BME280;19763;55.798;37.782;2023-11-19T03:25:02;39094.66;;;-145.63;50.38
33422;BME280;19763;55.798;37.782;2023-11-19T03:27:29;39088.78;;;-145.63;50.32
33422;BME280;19763;55.798;37.782;2023-11-19T03:29:55;39125.94;;;-145.63;50.38
33422;BME280;19763;55.798;37.782;2023-11-19T03:32:21;39100.50;;;-145.63;50.37
33422;BME280;19763;55.798;37.782;2023-11-19T03:34:46;39147.44;;;-145.63;49.97
33422;BME280;19763;55.798;37.782;2023-11-19T03:37:12;39125.94;;;-145.63;50.15
33422;BME280;19763;55.798;37.782;2023-11-19T03:39:41;39106.38;;;-145.63;49.91
33422;BME280;19763;55.798;37.782;2023-11-19T03:42:07;39116.16;;;-145.63;49.85
33422;BME280;19763;55.798;37.782;2023-11-19T03:44:33;39106.38;;;-145.63;49.47
33422;BME280;19763;55.798;37.782;2023-11-19T03:46:58;39122.03;;;-145.63;49.90
33422;BME280;19763;55.798;37.782;2023-11-19T03:49:24;39123.97;;;-145.63;49.53
33422;BME280;19763;55.798;37.782;2023-11-19T03:51:50;39116.16;;;-145.63;49.75
33422;BME280;19763;55.798;37.782;2023-11-19T03:54:16;39122.03;;;-145.63;49.25
33422;BME280;19763;55.798;37.782;2023-11-19T03:56:41;39108.34;;;-145.63;49.70
33422;BME280;19763;55.798;37.782;2023-11-19T03:59:07;39098.56;;;-145.63;50.41
33422;BME280;19763;55.798;37.782;2023-11-19T04:01:35;39114.22;;;-145.63;50.35
33422;BME280;19763;55.798;37.782;2023-11-19T04:04:03;39098.56;;;-145.63;50.07
33422;BME280;19763;55.798;37.782;2023-11-19T04:06:29;39075.09;;;-145.63;50.74
33422;BME280;19763;55.798;37.782;2023-11-19T04:08:55;39098.56;;;-145.63;51.14
33422;BME280;19763;55.798;37.782;2023-11-19T04:11:21;39061.41;;;-145.63;51.09
33422;BME280;19763;55.798;37.782;2023-11-19T04:13:47;39061.41;;;-145.63;52.03
33422;BME280;19763;55.798;37.782;2023-11-19T04:16:14;39032.06;;;-145.63;52.20
33422;BME280;19763;55.798;37.782;2023-11-19T04:18:40;39061.41;;;-145.63;52.61
33422;BME280;19763;55.798;37.782;2023-11-19T04:21:07;39055.53;;;-145.63;51.20
33422;BME280;19763;55.798;37.782;2023-11-19T04:23:33;39104.44;;;-145.63;52.26
33422;BME280;19763;55.798;37.782;2023-11-19T04:26:02;38875.63;;;-145.63;51.43
33422;BME280;19763;55.798;37.782;2023-11-19T04:28:28;39084.88;;;-145.63;51.80
33422;BME280;19763;55.798;37.782;2023-11-19T04:30:54;39051.63;;;-145.63;51.38
33422;BME280;19763;55.798;37.782;2023-11-19T04:33:20;39086.81;;;-145.63;51.26
33422;BME280;19763;55.798;37.782;2023-11-19T04:35:46;39084.88;;;-145.63;51.67
33422;BME280;19763;55.798;37.782;2023-11-19T04:38:11;39092.69;;;-145.63;52.00
33422;BME280;19763;55.798;37.782;2023-11-19T04:40:37;39077.06;;;-145.63;52.25
33422;BME280;19763;55.798;37.782;2023-11-19T04:43:03;39071.19;;;-145.63;51.46
33422;BME280;19763;55.798;37.782;2023-11-19T04:45:29;39088.78;;;-145.63;51.23
33422;BME280;19763;55.798;37.782;2023-11-19T04:47:54;39059.44;;;-145.63;52.42
33422;BME280;19763;55.798;37.782;2023-11-19T04:50:20;39079.00;;;-145.63;52.19
33422;BME280;19763;55.798;37.782;2023-11-19T04:52:46;39073.13;;;-145.63;52.13
33422;BME280;19763;55.798;37.782;2023-11-19T04:55:12;39071.19;;;-145.63;51.86
33422;BME280;19763;55.798;37.782;2023-11-19T04:57:40;39075.09;;;-145.63;53.21
33422;BME280;19763;55.798;37.782;2023-11-19T05:00:06;39059.44;;;-145.63;52.32
33422;BME280;19763;55.798;37.782;2023-11-19T05:02:34;39077.06;;;-145.63;52.86
33422;BME280;19763;55.798;37.782;2023-11-19T05:05:01;39067.28;;;-145.63;52.43
33422;BME280;19763;55.798;37.782;2023-11-19T05:07:29;39086.81;;;-145.63;52.88
33422;BME280;19763;55.798;37.782;2023-11-19T05:09:54;39090.75;;;-145.63;52.42
33422;BME280;19763;55.798;37.782;2023-11-19T05:12:20;39075.09;;;-145.63;51.78
33422;BME280;19763;55.798;37.782;2023-11-19T05:14:46;39098.56;;;-145.63;52.01
33422;BME280;19763;55.798;37.782;2023-11-19T05:17:16;39067.28;;;-145.63;51.79
33422;BME280;19763;55.798;37.782;2023-11-19T05:19:43;39088.78;;;-145.63;51.75
33422;BME280;19763;55.798;37.782;2023-11-19T05:22:09;39084.88;;;-145.63;51.42
33422;BME280;19763;55.798;37.782;2023-11-19T05:24:35;39079.00;;;-145.63;53.11
33422;BME280;19763;55.798;37.782;2023-11-19T05:27:01;39032.06;;;-145.63;52.44
33422;BME280;19763;55.798;37.782;2023-11-19T05:29:27;39049.66;;;-145.63;52.81
33422;BME280;19763;55.798;37.782;2023-11-19T05:31:54;39106.38;;;-145.63;53.18
33422;BME280;19763;55.798;37.782;2023-11-19T05:34:21;39086.81;;;-145.63;52.68
33422;BME280;19763;55.798;37.782;2023-11-19T05:36:47;39067.28;;;-145.63;53.00
33422;BME280;19763;55.798;37.782;2023-11-19T05:39:13;39065.31;;;-145.63;53.50
33422;BME280;19763;55.798;37.782;2023-11-19T05:41:38;39051.63;;;-145.63;54.25
33422;BME280;19763;55.798;37.782;2023-11-19T05:44:04;39075.09;;;-145.63;53.86
33422;BME280;19763;55.798;37.782;2023-11-19T05:46:30;39110.28;;;-145.63;54.40
33422;BME280;19763;55.798;37.782;2023-11-19T05:48:56;39063.34;;;-145.63;53.00
33422;BME280;19763;55.798;37.782;2023-11-19T05:51:21;39047.72;;;-145.63;53.32
33422;BME280;19763;55.798;37.782;2023-11-19T05:53:49;39037.94;;;-145.63;53.34
33422;BME280;19763;55.798;37.782;2023-11-19T05:56:16;39080.97;;;-145.63;53.00
33422;BME280;19763;55.798;37.782;2023-11-19T05:58:47;39024.25;;;-145.63;54.08
33422;BME280;19763;55.798;37.782;2023-11-19T06:01:14;39026.19;;;-145.63;53.81
33422;BME280;19763;55.798;37.782;2023-11-19T06:03:40;39035.97;;;-145.63;53.81
33422;BME280;19763;55.798;37.782;2023-11-19T06:06:08;39016.44;;;-145.63;53.40
33422;BME280;19763;55.798;37.782;2023-11-19T06:08:34;39014.47;;;-145.63;54.99
33422;BME280;19763;55.798;37.782;2023-11-19T06:11:00;39020.34;;;-145.63;53.63
33422;BME280;19763;55.798;37.782;2023-11-19T06:13:26;39037.94;;;-145.63;54.09
33422;BME280;19763;55.798;37.782;2023-11-19T06:15:52;38989.03;;;-145.63;54.11
33422;BME280;19763;55.798;37.782;2023-11-19T06:18:18;38996.88;;;-145.63;54.61
33422;BME280;19763;55.798;37.782;2023-11-19T06:20:45;39006.66;;;-145.63;54.97
33422;BME280;19763;55.798;37.782;2023-11-19T06:23:11;38961.66;;;-145.63;55.01
33422;BME280;19763;55.798;37.782;2023-11-19T06:25:37;39016.44;;;-145.63;54.90
33422;BME280;19763;55.798;37.782;2023-11-19T06:28:03;38996.88;;;-145.63;54.32
33422;BME280;19763;55.798;37.782;2023-11-19T06:30:30;38998.81;;;-145.63;54.24
33422;BME280;19763;55.798;37.782;2023-11-19T06:32:58;39063.34;;;-145.63;55.41
33422;BME280;19763;55.798;37.782;2023-11-19T06:35:23;39006.66;;;-145.63;54.82
33422;BME280;19763;55.798;37.782;2023-11-19T06:37:49;39028.16;;;-145.63;55.32
33422;BME280;19763;55.798;37.782;2023-11-19T06:40:15;39002.72;;;-145.63;55.14
33422;BME280;19763;55.798;37.782;2023-11-19T06:42:41;39022.28;;;-145.63;54.21
33422;BME280;19763;55.798;37.782;2023-11-19T06:45:07;39006.66;;;-145.63;53.80
33422;BME280;19763;55.798;37.782;2023-11-19T06:47:33;39008.59;;;-145.63;54.56
33422;BME280;19763;55.798;37.782;2023-11-19T06:49:59;38998.81;;;-145.63;54.94
33422;BME280;19763;55.798;37.782;2023-11-19T06:52:24;38985.13;;;-145.63;54.36
33422;BME280;19763;55.798;37.782;2023-11-19T06:54:50;39008.59;;;-145.63;54.67
33422;BME280;19763;55.798;37.782;2023-11-19T06:57:16;38979.28;;;-145.63;53.78
33422;BME280;19763;55.798;37.782;2023-11-19T06:59:42;39037.94;;;-145.63;53.95
33422;BME280;19763;55.798;37.782;2023-11-19T07:02:09;39016.44;;;-145.63;54.01
33422;BME280;19763;55.798;37.782;2023-11-19T07:04:34;39004.69;;;-145.63;53.65
33422;BME280;19763;55.798;37.782;2023-11-19T07:07:00;38985.13;;;-145.63;54.70
33422;BME280;19763;55.798;37.782;2023-11-19T07:09:26;38992.97;;;-145.63;54.65
33422;BME280;19763;55.798;37.782;2023-11-19T07:11:52;39034.03;;;-145.63;53.57
33422;BME280;19763;55.798;37.782;2023-11-19T07:14:19;39047.72;;;-145.63;53.65
33422;BME280;19763;55.798;37.782;2023-11-19T07:16:45;39012.50;;;-145.63;53.42
33422;BME280;19763;55.798;37.782;2023-11-19T07:19:11;39034.03;;;-145.63;52.00
33422;BME280;19763;55.798;37.782;2023-11-19T07:21:41;39020.34;;;-145.63;52.95
33422;BME280;19763;55.798;37.782;2023-11-19T07:24:10;39043.81;;;-145.63;51.87
33422;BME280;19763;55.798;37.782;2023-11-19T07:26:43;39069.22;;;-145.63;51.89
33422;BME280;19763;55.798;37.782;2023-11-19T07:29:09;39004.69;;;-145.63;51.92
33422;BME280;19763;55.798;37.782;2023-11-19T07:31:35;39067.28;;;-145.63;52.04
33422;BME280;19763;55.798;37.782;2023-11-19T07:34:01;39053.59;;;-145.63;51.84
33422;BME280;19763;55.798;37.782;2023-11-19T07:36:26;39016.44;;;-145.63;51.50
33422;BME280;19763;55.798;37.782;2023-11-19T07:38:52;39026.19;;;-145.63;51.65
33422;BME280;19763;55.798;37.782;2023-11-19T07:41:18;38991.00;;;-145.63;52.18
33422;BME280;19763;55.798;37.782;2023-11-19T07:43:45;38996.88;;;-145.63;51.89
33422;BME280;19763;55.798;37.782;2023-11-19T07:46:13;38989.03;;;-145.63;51.98
33422;BME280;19763;55.798;37.782;2023-11-19T07:48:39;39043.81;;;-145.63;52.27
33422;BME280;19763;55.798;37.782;2023-11-19T07:51:05;39028.16;;;-145.63;51.89
33422;BME280;19763;55.798;37.782;2023-11-19T07:53:31;39012.50;;;-145.63;52.56
33422;BME280;19763;55.798;37.782;2023-11-19T07:55:58;39055.53;;;-145.63;51.75
33422;BME280;19763;55.798;37.782;2023-11-19T07:58:25;39024.25;;;-145.63;52.01
33422;BME280;19763;55.798;37.782;2023-11-19T08:00:51;38987.09;;;-145.63;51.85
33422;BME280;19763;55.798;37.782;2023-11-19T08:03:17;39002.72;;;-145.63;52.43
33422;BME280;19763;55.798;37.782;2023-11-19T08:05:45;39041.84;;;-145.63;52.39
33422;BME280;19763;55.798;37.782;2023-11-19T08:08:12;39043.81;;;-145.63;51.92
33422;BME280;19763;55.798;37.782;2023-11-19T08:10:38;38842.38;;;-145.63;51.92
33422;BME280;19763;55.798;37.782;2023-11-19T08:13:05;39035.97;;;-145.63;51.31
33422;BME280;19763;55.798;37.782;2023-11-19T08:15:31;39028.16;;;-145.63;51.50
33422;BME280;19763;55.798;37.782;2023-11-19T08:17:57;39037.94;;;-145.63;50.53
33422;BME280;19763;55.798;37.782;2023-11-19T08:20:23;39071.19;;;-145.63;50.17
33422;BME280;19763;55.798;37.782;2023-11-19T08:22:49;39055.53;;;-145.63;49.69
33422;BME280;19763;55.798;37.782;2023-11-19T08:25:15;39032.06;;;-145.63;49.55
33422;BME280;19763;55.798;37.782;2023-11-19T08:27:40;39030.13;;;-145.63;48.98
33422;BME280;19763;55.798;37.782;2023-11-19T08:30:07;38979.28;;;-145.63;48.57
33422;BME280;19763;55.798;37.782;2023-11-19T08:32:32;39008.59;;;-145.63;49.29
33422;BME280;19763;55.798;37.782;2023-11-19T08:34:58;39028.16;;;-145.63;49.55
33422;BME280;19763;55.798;37.782;2023-11-19T08:37:24;39030.13;;;-145.63;49.47
33422;BME280;19763;55.798;37.782;2023-11-19T08:39:50;39010.56;;;-145.63;48.25
33422;BME280;19763;55.798;37.782;2023-11-19T08:42:16;39080.97;;;-145.63;48.98
33422;BME280;19763;55.798;37.782;2023-11-19T08:44:43;39035.97;;;-145.63;48.39
33422;BME280;19763;55.798;37.782;2023-11-19T08:47:11;39037.94;;;-145.63;49.04
33422;BME280;19763;55.798;37.782;2023-11-19T08:49:36;39010.56;;;-145.63;49.41
33422;BME280;19763;55.798;37.782;2023-11-19T08:52:02;39002.72;;;-145.63;48.67
33422;BME280;19763;55.798;37.782;2023-11-19T08:54:28;39039.88;;;-145.63;48.80
33422;BME280;19763;55.798;37.782;2023-11-19T08:56:53;39051.63;;;-145.63;47.77
33422;BME280;19763;55.798;37.782;2023-11-19T08:59:19;39032.06;;;-145.63;47.77
33422;BME280;19763;55.798;37.782;2023-11-19T09:01:45;39051.63;;;-145.63;47.32
33422;BME280;19763;55.798;37.782;2023-11-19T09:04:11;39008.59;;;-145.63;46.77
33422;BME280;19763;55.798;37.782;2023-11-19T09:06:37;39039.88;;;-145.63;46.93
33422;BME280;19763;55.798;37.782;2023-11-19T09:09:02;39041.84;;;-145.63;46.73
33422;BME280;19763;55.798;37.782;2023-11-19T09:11:31;39055.53;;;-145.63;46.22
33422;BME280;19763;55.798;37.782;2023-11-19T09:13:57;39026.19;;;-145.63;47.03
33422;BME280;19763;55.798;37.782;2023-11-19T09:16:23;39030.13;;;-145.63;47.45
33422;BME280;19763;55.798;37.782;2023-11-19T09:18:49;39063.34;;;-145.63;47.87
33422;BME280;19763;55.798;37.782;2023-11-19T09:21:15;39075.09;;;-145.63;47.13
33422;BME280;19763;55.798;37.782;2023-11-19T09:23:41;39065.31;;;-145.63;46.85
33422;BME280;19763;55.798;37.782;2023-11-19T09:26:10;39053.59;;;-145.63;45.67
33422;BME280;19763;55.798;37.782;2023-11-19T09:28:36;39024.25;;;-145.63;44.94
33422;BME280;19763;55.798;37.782;2023-11-19T09:31:02;39049.66;;;-145.63;44.56
33422;BME280;19763;55.798;37.782;2023-11-19T09:33:30;39063.34;;;-145.63;45.79
33422;BME280;19763;55.798;37.782;2023-11-19T09:35:56;39053.59;;;-145.63;45.24
33422;BME280;19763;55.798;37.782;2023-11-19T09:38:23;39079.00;;;-145.63;45.11
33422;BME280;19763;55.798;37.782;2023-11-19T09:40:48;39071.19;;;-145.63;44.82
33422;BME280;19763;55.798;37.782;2023-11-19T09:43:15;39077.06;;;-145.63;45.49
33422;BME280;19763;55.798;37.782;2023-11-19T09:45:50;39090.75;;;-145.63;44.85
33422;BME280;19763;55.798;37.782;2023-11-19T09:48:18;39051.63;;;-145.63;45.31
33422;BME280;19763;55.798;37.782;2023-11-19T09:50:47;39077.06;;;-145.63;45.97
33422;BME280;19763;55.798;37.782;2023-11-19T09:53:14;39080.97;;;-145.63;45.81
33422;BME280;19763;55.798;37.782;2023-11-19T09:55:41;39075.09;;;-145.63;45.74
33422;BME280;19763;55.798;37.782;2023-11-19T09:58:07;39073.13;;;-145.63;44.80
33422;BME280;19763;55.798;37.782;2023-11-19T10:00:33;38996.88;;;-145.63;45.21
33422;BME280;19763;55.798;37.782;2023-11-19T10:02:59;39063.34;;;-145.63;44.87
33422;BME280;19763;55.798;37.782;2023-11-19T10:05:26;39057.50;;;-145.63;44.91
33422;BME280;19763;55.798;37.782;2023-11-19T10:07:54;39067.28;;;-145.63;45.20
33422;BME280;19763;55.798;37.782;2023-11-19T10:10:21;39084.88;;;-145.63;45.41
33422;BME280;19763;55.798;37.782;2023-11-19T10:12:47;39090.75;;;-145.63;45.01
33422;BME280;19763;55.798;37.782;2023-11-19T10:15:24;39094.66;;;-145.63;45.37
33422;BME280;19763;55.798;37.782;2023-11-19T10:17:51;39133.75;;;-145.63;45.18
33422;BME280;19763;55.798;37.782;2023-11-19T10:20:17;39071.19;;;-145.63;44.43
33422;BME280;19763;55.798;37.782;2023-11-19T10:22:43;39077.06;;;-145.63;44.44
33422;BME280;19763;55.798;37.782;2023-11-19T10:25:29;39082.91;;;-145.63;45.02
33422;BME280;19763;55.798;37.782;2023-11-19T10:27:56;39092.69;;;-145.63;44.77
33422;BME280;19763;55.798;37.782;2023-11-19T10:30:27;39110.28;;;-145.63;44.25
33422;BME280;19763;55.798;37.782;2023-11-19T10:35:28;39102.47;;;-145.63;43.69
33422;BME280;19763;55.798;37.782;2023-11-19T10:37:54;39080.97;;;-145.63;44.63
33422;BME280;19763;55.798;37.782;2023-11-19T10:40:20;39073.13;;;-145.63;45.05
33422;BME280;19763;55.798;37.782;2023-11-19T10:42:45;39073.13;;;-145.63;44.36
33422;BME280;19763;55.798;37.782;2023-11-19T10:45:24;39026.19;;;-145.63;45.63
33422;BME280;19763;55.798;37.782;2023-11-19T10:47:51;39067.28;;;-145.63;46.42
33422;BME280;19763;55.798;37.782;2023-11-19T10:50:17;39059.44;;;-145.63;46.39
33422;BME280;19763;55.798;37.782;2023-11-19T10:52:44;39080.97;;;-145.63;47.11
33422;BME280;19763;55.798;37.782;2023-11-19T10:55:11;39075.09;;;-145.63;45.94
33422;BME280;19763;55.798;37.782;2023-11-19T10:57:43;38249.91;;;-145.63;46.17
33422;BME280;19763;55.798;37.782;2023-11-19T11:00:11;39051.63;;;-145.63;44.88
33422;BME280;19763;55.798;37.782;2023-11-19T11:02:41;39051.63;;;-145.63;44.91
33422;BME280;19763;55.798;37.782;2023-11-19T11:05:09;39090.75;;;-145.63;45.36
33422;BME280;19763;55.798;37.782;2023-11-19T11:07:39;39067.28;;;-145.63;44.99
33422;BME280;19763;55.798;37.782;2023-11-19T11:10:07;39084.88;;;-145.63;45.74
33422;BME280;19763;55.798;37.782;2023-11-19T11:12:37;39094.66;;;-145.63;44.58
33422;BME280;19763;55.798;37.782;2023-11-19T11:15:07;39034.03;;;-145.63;44.40
33422;BME280;19763;55.798;37.782;2023-11-19T11:17:34;39047.72;;;-145.63;44.75
33422;BME280;19763;55.798;37.782;2023-11-19T11:19:59;39073.13;;;-145.63;45.10
33422;BME280;19763;55.798;37.782;2023-11-19T11:22:27;38996.88;;;-145.63;45.27
33422;BME280;19763;55.798;37.782;2023-11-19T11:27:40;39075.09;;;-145.63;45.17
33422;BME280;19763;55.798;37.782;2023-11-19T11:35:49;39051.63;;;-145.63;45.13
33422;BME280;19763;55.798;37.782;2023-11-19T11:38:22;39000.78;;;-145.63;45.01
33422;BME280;19763;55.798;37.782;2023-11-19T11:41:43;39086.81;;;-145.63;45.13
33422;BME280;19763;55.798;37.782;2023-11-19T11:44:01;39055.53;;;-145.63;45.47
33422;BME280;19763;55.798;37.782;2023-11-19T11:49:02;39037.94;;;-145.63;45.93
33422;BME280;19763;55.798;37.782;2023-11-19T11:57:06;38754.38;;;-145.63;46.08
33422;BME280;19763;55.798;37.782;2023-11-19T12:02:12;39073.13;;;-145.63;45.81
33422;BME280;19763;55.798;37.782;2023-11-19T12:04:41;39043.81;;;-145.63;45.96
33422;BME280;19763;55.798;37.782;2023-11-19T12:07:19;39155.28;;;-145.63;45.67
33422;BME280;19763;55.798;37.782;2023-11-19T12:10:08;39088.78;;;-145.63;45.23
33422;BME280;19763;55.798;37.782;2023-11-19T12:12:36;39079.00;;;-145.63;44.89
33422;BME280;19763;55.798;37.782;2023-11-19T12:15:08;39161.13;;;-145.63;46.02
33422;BME280;19763;55.798;37.782;2023-11-19T12:17:43;39086.81;;;-145.63;46.22
33422;BME280;19763;55.798;37.782;2023-11-19T12:20:10;39118.13;;;-145.63;45.46
33422;BME280;19763;55.798;37.782;2023-11-19T12:22:41;39143.53;;;-145.63;46.10
33422;BME280;19763;55.798;37.782;2023-11-19T12:25:12;39118.13;;;-145.63;45.55
33422;BME280;19763;55.798;37.782;2023-11-19T12:27:42;39145.50;;;-145.63;45.13
33422;BME280;19763;55.798;37.782;2023-11-19T12:30:08;39120.06;;;-145.63;45.35
33422;BME280;19763;55.798;37.782;2023-11-19T12:32:38;39118.13;;;-145.63;45.25
33422;BME280;19763;55.798;37.782;2023-11-19T12:35:04;39094.66;;;-145.63;45.45
33422;BME280;19763;55.798;37.782;2023-11-19T12:37:30;39090.75;;;-145.63;45.26
33422;BME280;19763;55.798;37.782;2023-11-19T12:39:57;39123.97;;;-145.63;45.54
33422;BME280;19763;55.798;37.782;2023-11-19T12:42:39;39135.72;;;-145.63;45.01
33422;BME280;19763;55.798;37.782;2023-11-19T12:45:05;39102.47;;;-145.63;45.15
33422;BME280;19763;55.798;37.782;2023-11-19T12:47:31;39168.97;;;-145.63;45.79
33422;BME280;19763;55.798;37.782;2023-11-19T12:49:58;39090.75;;;-145.63;44.90
33422;BME280;19763;55.798;37.782;2023-11-19T12:52:24;39122.03;;;-145.63;45.46
33422;BME280;19763;55.798;37.782;2023-11-19T12:54:50;39122.03;;;-145.63;45.39
33422;BME280;19763;55.798;37.782;2023-11-19T12:57:16;39086.81;;;-145.63;45.63